Time;durP1;ratioP1;P1;durP2;ratioP2;P2;SDS_P1;SDS_P2;PMS_P1;PMS_P2;Temp;Humidity;BMP_temperature;BMP_pressure;BME280_temperature;BME280_humidity;BME280_pressure;Samples;Min_cycle;Max_cycle;Signal;HPM_P1;HPM_P2
2023/11/29 00:01:20;;;;;;;9.17;6.10;;;-1.10;99.90;;;;;;5028929;28;20628;-47
2023/11/29 00:03:49;;;;;;;10.77;6.67;;;-1.10;99.90;;;;;;5058292;28;20255;-44
2023/11/29 00:06:15;;;;;;;10.40;6.57;;;-1.10;99.90;;;;;;5062489;28;20249;-50
2023/11/29 00:08:42;;;;;;;10.23;7.23;;;-1.10;99.90;;;;;;5059294;28;20206;-46
2023/11/29 00:11:09;;;;;;;11.30;6.57;;;-1.00;99.90;;;;;;5060762;28;20298;-51
2023/11/29 00:13:36;;;;;;;10.17;7.00;;;-1.00;99.90;;;;;;5061073;28;20197;-47
2023/11/29 00:16:03;;;;;;;10.67;6.70;;;-1.00;99.90;;;;;;5025993;28;21120;-50
2023/11/29 00:18:30;;;;;;;13.07;7.30;;;-0.90;99.90;;;;;;5061862;28;20679;-50
2023/11/29 00:21:01;;;;;;;13.10;8.00;;;-0.90;99.90;;;;;;5058812;28;20194;-49
2023/11/29 00:23:27;;;;;;;12.47;7.30;;;-0.90;99.90;;;;;;5055374;28;20298;-51
2023/11/29 00:25:54;;;;;;;10.67;6.70;;;-0.90;99.90;;;;;;5056709;28;20274;-49
2023/11/29 00:28:21;;;;;;;9.33;6.90;;;-0.80;99.90;;;;;;5061998;28;20220;-47
2023/11/29 00:30:48;;;;;;;12.73;7.77;;;-0.80;99.90;;;;;;5026973;28;20194;-45
2023/11/29 00:33:17;;;;;;;11.03;7.37;;;-0.80;99.90;;;;;;5057695;28;20248;-50
2023/11/29 00:35:44;;;;;;;11.97;7.27;;;-0.80;99.90;;;;;;5059446;28;20217;-49
2023/11/29 00:38:12;;;;;;;11.27;7.17;;;-0.70;99.90;;;;;;5060753;28;20197;-48
2023/11/29 00:40:38;;;;;;;13.00;7.70;;;-0.70;99.90;;;;;;5060589;28;20186;-45
2023/11/29 00:43:12;;;;;;;11.20;7.20;;;-0.70;99.90;;;;;;5059035;28;20263;-50
2023/11/29 00:45:41;;;;;;;10.87;7.03;;;-0.60;99.90;;;;;;5055283;28;20216;-46
2023/11/29 00:48:08;;;;;;;12.23;7.93;;;-0.60;99.90;;;;;;5024340;28;20994;-49
2023/11/29 00:50:35;;;;;;;11.57;6.97;;;-0.60;99.90;;;;;;5060019;28;20195;-48
2023/11/29 00:53:02;;;;;;;13.17;8.43;;;-0.60;99.90;;;;;;5057825;28;20190;-48
2023/11/29 00:55:30;;;;;;;11.93;8.10;;;-0.60;99.90;;;;;;5062085;28;20708;-48
2023/11/29 00:57:57;;;;;;;12.87;7.50;;;-0.50;99.90;;;;;;5061831;28;20211;-51
2023/11/29 01:00:24;;;;;;;12.70;8.10;;;-0.50;99.90;;;;;;5064558;28;20198;-48
2023/11/29 01:02:50;;;;;;;13.10;8.50;;;-0.50;99.90;;;;;;5029218;28;20195;-50
2023/11/29 01:05:17;;;;;;;15.90;7.63;;;-0.50;99.90;;;;;;5064263;28;20271;-50
2023/11/29 01:07:44;;;;;;;10.73;7.67;;;-0.50;99.90;;;;;;5061298;28;20622;-46
2023/11/29 01:10:11;;;;;;;13.77;7.47;;;-0.50;99.90;;;;;;5064466;28;20382;-49
2023/11/29 01:12:39;;;;;;;13.30;8.53;;;-0.50;99.90;;;;;;5062690;28;20610;-46
2023/11/29 01:15:07;;;;;;;11.60;8.10;;;-0.40;99.90;;;;;;5063422;28;20211;-50
2023/11/29 01:17:35;;;;;;;15.00;8.53;;;-0.40;99.90;;;;;;5050982;28;20186;-47
2023/11/29 01:20:03;;;;;;;12.60;8.87;;;-0.30;99.90;;;;;;5036740;28;20228;-47
2023/11/29 01:22:29;;;;;;;14.07;8.70;;;-0.30;99.90;;;;;;5064210;28;20225;-50
2023/11/29 01:24:56;;;;;;;10.17;6.47;;;-0.20;99.90;;;;;;5061381;28;20210;-48
2023/11/29 01:27:23;;;;;;;12.87;8.30;;;-0.20;99.90;;;;;;5063536;28;20219;-51
2023/11/29 01:29:51;;;;;;;14.30;8.27;;;-0.10;99.90;;;;;;5061604;28;20193;-48
2023/11/29 01:32:19;;;;;;;14.73;9.23;;;-0.10;99.90;;;;;;5064716;28;20282;-49
2023/11/29 01:34:46;;;;;;;15.77;9.27;;;0.00;99.90;;;;;;5025987;28;20225;-45
2023/11/29 01:37:14;;;;;;;14.43;8.30;;;0.00;99.90;;;;;;5063289;28;20677;-48
2023/11/29 01:39:44;;;;;;;14.50;9.57;;;0.10;99.90;;;;;;5061487;28;20201;-50
2023/11/29 01:42:11;;;;;;;16.60;9.03;;;0.20;99.90;;;;;;5063652;28;20206;-48
2023/11/29 01:44:38;;;;;;;16.80;9.10;;;0.20;99.90;;;;;;5063747;28;20703;-47
2023/11/29 01:47:09;;;;;;;14.23;10.40;;;0.20;99.90;;;;;;5061384;28;20307;-48
2023/11/29 01:49:36;;;;;;;12.77;8.87;;;0.30;99.90;;;;;;5033355;28;20548;-47
2023/11/29 01:52:03;;;;;;;14.30;9.80;;;0.40;99.90;;;;;;5060857;28;20206;-51
2023/11/29 01:54:30;;;;;;;15.23;10.10;;;0.40;99.90;;;;;;5063685;28;20229;-48
2023/11/29 01:56:57;;;;;;;18.10;11.00;;;0.40;99.90;;;;;;5060358;28;20984;-47
2023/11/29 01:59:24;;;;;;;14.83;10.63;;;0.50;99.90;;;;;;5063293;28;20289;-52
2023/11/29 02:01:51;;;;;;;16.07;10.20;;;0.50;99.90;;;;;;5059662;28;20194;-50
2023/11/29 02:04:19;;;;;;;16.40;11.43;;;0.60;99.90;;;;;;5028839;28;20226;-48
2023/11/29 02:06:47;;;;;;;15.07;11.37;;;0.60;99.90;;;;;;5061025;28;20195;-47
2023/11/29 02:09:14;;;;;;;17.93;10.60;;;0.60;99.90;;;;;;5062101;28;20271;-48
2023/11/29 02:11:42;;;;;;;16.87;11.63;;;0.60;99.90;;;;;;5061103;28;20206;-48
2023/11/29 02:14:09;;;;;;;14.33;10.47;;;0.70;99.90;;;;;;5063045;28;20218;-50
2023/11/29 02:16:36;;;;;;;14.00;10.33;;;0.70;99.90;;;;;;5063452;28;20198;-45
2023/11/29 02:19:03;;;;;;;16.93;10.80;;;0.70;99.90;;;;;;5026461;28;20982;-48
2023/11/29 02:21:32;;;;;;;18.20;11.07;;;0.70;99.90;;;;;;5064038;28;20225;-47
2023/11/29 02:24:04;;;;;;;16.40;12.00;;;0.80;99.90;;;;;;5060989;28;20371;-49
2023/11/29 02:26:32;;;;;;;15.57;11.33;;;0.80;99.90;;;;;;5064130;28;20679;-47
2023/11/29 02:29:00;;;;;;;16.03;10.73;;;0.80;99.90;;;;;;5060808;28;20280;-52
2023/11/29 02:31:27;;;;;;;17.20;11.20;;;0.80;99.90;;;;;;5061284;28;20244;-49
2023/11/29 02:33:54;;;;;;;16.77;11.60;;;0.80;99.90;;;;;;5058409;28;20222;-49
2023/11/29 02:36:21;;;;;;;17.83;12.87;;;0.90;99.90;;;;;;5030490;28;20214;-50
2023/11/29 02:38:48;;;;;;;19.27;12.50;;;0.90;99.90;;;;;;5059308;28;20322;-45
2023/11/29 02:41:15;;;;;;;16.80;12.83;;;0.90;99.90;;;;;;5063317;28;20309;-47
2023/11/29 02:43:43;;;;;;;21.87;14.20;;;0.90;99.90;;;;;;5057607;28;20253;-47
2023/11/29 02:46:10;;;;;;;18.97;12.70;;;0.90;99.90;;;;;;5062183;28;20565;-47
2023/11/29 02:48:37;;;;;;;19.40;12.70;;;0.90;99.90;;;;;;5060355;28;20280;-46
2023/11/29 02:51:04;;;;;;;19.57;12.87;;;0.90;99.90;;;;;;5027753;28;21200;-52
2023/11/29 02:53:31;;;;;;;20.30;13.33;;;0.90;99.90;;;;;;5061805;28;20195;-47
2023/11/29 02:55:58;;;;;;;18.97;13.50;;;0.90;99.90;;;;;;5059018;28;20428;-48
2023/11/29 02:58:25;;;;;;;19.97;13.30;;;1.00;99.90;;;;;;5061829;28;20240;-48
2023/11/29 03:00:53;;;;;;;16.67;13.77;;;1.00;99.90;;;;;;5058297;28;20194;-50
2023/11/29 03:03:20;;;;;;;19.07;13.13;;;1.00;99.90;;;;;;5060121;28;20199;-50
2023/11/29 03:05:48;;;;;;;17.47;12.87;;;1.00;99.90;;;;;;5058416;28;20268;-46
2023/11/29 03:08:15;;;;;;;18.60;13.87;;;1.00;99.90;;;;;;5030019;28;20218;-50
2023/11/29 03:10:42;;;;;;;20.33;15.57;;;1.00;99.90;;;;;;5059758;28;20261;-43
2023/11/29 03:13:09;;;;;;;20.03;13.20;;;1.00;99.90;;;;;;5062116;28;20683;-48
2023/11/29 03:15:36;;;;;;;20.83;14.93;;;1.10;99.90;;;;;;5060380;28;20218;-46
2023/11/29 03:18:04;;;;;;;18.80;14.07;;;1.10;99.90;;;;;;5060887;28;20405;-50
2023/11/29 03:20:31;;;;;;;17.63;13.20;;;1.10;99.90;;;;;;5060462;28;20638;-48
2023/11/29 03:22:58;;;;;;;22.30;14.80;;;1.10;99.90;;;;;;5028551;28;20207;-48
2023/11/29 03:25:24;;;;;;;16.50;13.33;;;1.10;99.90;;;;;;5061716;28;20260;-49
2023/11/29 03:27:51;;;;;;;23.77;15.97;;;1.10;99.90;;;;;;5056719;28;20248;-47
2023/11/29 03:30:18;;;;;;;20.53;14.20;;;1.10;99.90;;;;;;5062761;28;20202;-50
2023/11/29 03:32:45;;;;;;;20.03;13.87;;;1.10;99.90;;;;;;5057344;28;20635;-43
2023/11/29 03:35:13;;;;;;;16.83;11.63;;;1.10;99.90;;;;;;5060099;28;20704;-49
2023/11/29 03:37:40;;;;;;;21.73;14.53;;;1.10;99.90;;;;;;5041538;28;20244;-47
2023/11/29 03:40:08;;;;;;;22.80;15.60;;;1.10;99.90;;;;;;5049458;28;20199;-47
2023/11/29 03:42:35;;;;;;;20.70;14.70;;;1.10;99.90;;;;;;5059894;28;20206;-47
2023/11/29 03:45:02;;;;;;;21.60;15.93;;;1.10;99.90;;;;;;5058875;28;20211;-47
2023/11/29 03:47:29;;;;;;;18.50;14.57;;;1.10;99.90;;;;;;5061273;28;20298;-49
2023/11/29 03:49:56;;;;;;;18.27;13.93;;;1.10;99.90;;;;;;5057664;28;20194;-50
2023/11/29 03:52:24;;;;;;;20.63;14.73;;;1.10;99.90;;;;;;5061193;28;20210;-50
2023/11/29 03:54:51;;;;;;;19.97;14.60;;;1.10;99.90;;;;;;5023631;28;20327;-49
2023/11/29 03:57:19;;;;;;;19.73;13.93;;;1.10;99.90;;;;;;5060986;28;20315;-52
2023/11/29 03:59:46;;;;;;;20.33;14.93;;;1.10;99.90;;;;;;5058061;28;20549;-44
2023/11/29 04:02:13;;;;;;;19.30;14.67;;;1.20;99.90;;;;;;5061190;28;20252;-47
2023/11/29 04:04:40;;;;;;;20.13;12.93;;;1.20;99.90;;;;;;5058783;28;20218;-46
2023/11/29 04:07:07;;;;;;;19.10;13.03;;;1.20;99.90;;;;;;5060914;28;20194;-48
2023/11/29 04:09:35;;;;;;;21.57;15.23;;;1.20;99.90;;;;;;5053670;28;20217;-46
2023/11/29 04:12:02;;;;;;;22.03;15.40;;;1.20;99.90;;;;;;5041103;28;20209;-46
2023/11/29 04:14:29;;;;;;;18.70;13.53;;;1.20;99.90;;;;;;5059348;28;20275;-47
2023/11/29 04:16:56;;;;;;;20.07;14.30;;;1.20;99.90;;;;;;5057232;28;20846;-47
2023/11/29 04:19:24;;;;;;;20.77;14.00;;;1.20;99.90;;;;;;5060933;28;20201;-49
2023/11/29 04:21:52;;;;;;;19.13;14.40;;;1.20;99.90;;;;;;5056783;28;20194;-47
2023/11/29 04:24:19;;;;;;;18.60;13.33;;;1.20;99.90;;;;;;5060228;28;20210;-50
2023/11/29 04:26:47;;;;;;;17.00;13.27;;;1.20;99.90;;;;;;5025212;28;20301;-45
2023/11/29 04:29:14;;;;;;;20.83;14.47;;;1.20;99.90;;;;;;5060246;28;20586;-45
2023/11/29 04:31:41;;;;;;;18.70;14.73;;;1.20;99.90;;;;;;5050278;28;20198;-49
2023/11/29 04:34:09;;;;;;;17.00;13.77;;;1.20;99.90;;;;;;5059937;28;20219;-49
2023/11/29 04:36:36;;;;;;;16.83;12.23;;;1.30;99.90;;;;;;5046553;28;20203;-48
2023/11/29 04:39:05;;;;;;;19.17;14.97;;;1.20;99.90;;;;;;5060210;28;20195;-45
2023/11/29 04:41:32;;;;;;;16.90;13.57;;;1.20;99.90;;;;;;5023970;28;20213;-49
2023/11/29 04:44:00;;;;;;;18.30;14.10;;;1.20;99.90;;;;;;5055591;28;20883;-46
2023/11/29 04:46:28;;;;;;;17.83;13.73;;;1.30;99.90;;;;;;5059661;28;20215;-47
2023/11/29 04:48:55;;;;;;;21.87;13.20;;;1.30;99.90;;;;;;5057304;28;20218;-45
2023/11/29 04:51:21;;;;;;;17.20;12.23;;;1.30;99.90;;;;;;5061396;28;20260;-49
2023/11/29 04:53:48;;;;;;;14.73;11.77;;;1.30;99.90;;;;;;5059124;28;20190;-45
2023/11/29 04:56:15;;;;;;;16.23;12.70;;;1.30;99.90;;;;;;5060870;28;20261;-49
2023/11/29 04:58:42;;;;;;;19.80;13.90;;;1.30;99.90;;;;;;5028813;28;20227;-44
2023/11/29 05:01:10;;;;;;;18.40;13.03;;;1.30;99.90;;;;;;5059271;28;20252;-50
2023/11/29 05:03:37;;;;;;;13.73;11.27;;;1.30;99.90;;;;;;5045535;28;20214;-48
2023/11/29 05:06:05;;;;;;;15.33;11.13;;;1.30;99.90;;;;;;5056456;28;20249;-50
2023/11/29 05:08:33;;;;;;;13.97;11.20;;;1.30;99.90;;;;;;5055763;28;20945;-48
2023/11/29 05:11:00;;;;;;;15.87;12.20;;;1.30;99.90;;;;;;5054729;28;20206;-51
2023/11/29 05:13:27;;;;;;;14.07;11.47;;;1.30;99.90;;;;;;5023587;28;20198;-47
2023/11/29 05:15:54;;;;;;;14.27;11.40;;;1.30;99.90;;;;;;5061233;28;20358;-44
2023/11/29 05:18:22;;;;;;;14.97;11.00;;;1.30;99.90;;;;;;5049625;28;20303;-49
2023/11/29 05:20:49;;;;;;;14.77;12.23;;;1.30;99.90;;;;;;5058638;28;20268;-44
2023/11/29 05:23:16;;;;;;;15.27;10.40;;;1.30;99.90;;;;;;5057728;28;20199;-48
2023/11/29 05:25:43;;;;;;;11.50;9.57;;;1.30;99.90;;;;;;5052194;28;20214;-51
2023/11/29 05:28:10;;;;;;;14.77;10.57;;;1.40;99.90;;;;;;5025246;28;20223;-46
2023/11/29 05:30:37;;;;;;;12.80;10.50;;;1.30;99.90;;;;;;5055347;28;20190;-48
2023/11/29 05:33:04;;;;;;;11.43;9.10;;;1.40;99.90;;;;;;5056652;28;20270;-46
2023/11/29 05:35:32;;;;;;;13.43;10.23;;;1.30;99.90;;;;;;5051339;28;20304;-46
2023/11/29 05:37:59;;;;;;;12.83;10.47;;;1.40;99.90;;;;;;5058098;28;20252;-49
2023/11/29 05:40:26;;;;;;;11.80;10.27;;;1.30;99.90;;;;;;5059305;28;20829;-51
2023/11/29 05:42:53;;;;;;;15.50;9.87;;;1.30;99.90;;;;;;5042603;28;20210;-46
2023/11/29 05:45:20;;;;;;;10.80;9.67;;;1.30;99.90;;;;;;5033586;28;20211;-45
2023/11/29 05:47:47;;;;;;;15.53;10.60;;;1.30;99.90;;;;;;5045396;28;20263;-43
2023/11/29 05:50:14;;;;;;;12.70;9.53;;;1.30;99.90;;;;;;5053135;28;20229;-45
2023/11/29 05:52:42;;;;;;;12.97;9.23;;;1.30;99.90;;;;;;5061855;28;20264;-50
2023/11/29 05:55:10;;;;;;;12.33;9.60;;;1.30;99.90;;;;;;5063228;28;20268;-49
2023/11/29 05:57:37;;;;;;;12.30;9.70;;;1.30;99.90;;;;;;5053765;28;20285;-49
2023/11/29 06:00:08;;;;;;;12.53;10.13;;;1.30;99.90;;;;;;5033549;28;20668;-47
2023/11/29 06:02:39;;;;;;;11.90;10.50;;;1.30;99.90;;;;;;5058161;28;20198;-49
2023/11/29 06:05:07;;;;;;;14.53;10.17;;;1.30;99.90;;;;;;5063782;28;20276;-51
2023/11/29 06:07:34;;;;;;;12.33;10.13;;;1.30;99.90;;;;;;5052068;28;20257;-51
2023/11/29 06:10:04;;;;;;;12.43;10.20;;;1.30;99.90;;;;;;5061536;28;20325;-49
2023/11/29 06:12:33;;;;;;;12.10;10.00;;;1.30;99.90;;;;;;5051816;28;20218;-51
2023/11/29 06:14:59;;;;;;;11.83;10.20;;;1.30;99.90;;;;;;5028824;28;20231;-49
2023/11/29 06:17:26;;;;;;;10.97;9.70;;;1.30;99.90;;;;;;5057468;28;20194;-44
2023/11/29 06:19:53;;;;;;;14.17;10.57;;;1.30;99.90;;;;;;5063020;28;20686;-51
2023/11/29 06:22:20;;;;;;;11.03;9.37;;;1.40;99.90;;;;;;5052177;28;20215;-49
2023/11/29 06:24:47;;;;;;;12.63;11.00;;;1.40;99.90;;;;;;5062076;28;20301;-52
2023/11/29 06:27:17;;;;;;;12.90;10.47;;;1.40;99.90;;;;;;5061892;28;20203;-47
2023/11/29 06:29:44;;;;;;;13.37;10.27;;;1.40;99.90;;;;;;5021681;28;20619;-51
2023/11/29 06:32:11;;;;;;;14.37;10.03;;;1.30;99.90;;;;;;5064318;28;20260;-50
2023/11/29 06:34:37;;;;;;;13.70;10.13;;;1.40;99.90;;;;;;5061395;28;20207;-50
2023/11/29 06:37:04;;;;;;;13.77;11.07;;;1.40;99.90;;;;;;5047346;28;20840;-50
2023/11/29 06:39:31;;;;;;;13.87;10.97;;;1.40;99.90;;;;;;5062784;28;20285;-47
2023/11/29 06:41:58;;;;;;;12.77;9.87;;;1.30;99.90;;;;;;5057232;28;20193;-50
2023/11/29 06:44:26;;;;;;;14.03;10.80;;;1.30;99.90;;;;;;5051760;28;20215;-52
2023/11/29 06:46:54;;;;;;;14.10;11.77;;;1.30;99.90;;;;;;5024774;28;20202;-51
2023/11/29 06:49:21;;;;;;;14.60;11.37;;;1.30;99.90;;;;;;5061303;28;20243;-46
2023/11/29 06:51:49;;;;;;;20.23;11.73;;;1.30;99.90;;;;;;5043371;28;20272;-44
2023/11/29 06:54:16;;;;;;;15.10;11.67;;;1.30;99.90;;;;;;5059601;28;20226;-46
2023/11/29 06:56:42;;;;;;;16.03;12.87;;;1.30;99.90;;;;;;5060962;28;20270;-46
2023/11/29 06:59:11;;;;;;;15.73;11.40;;;1.40;99.90;;;;;;5060941;28;20847;-46
2023/11/29 07:01:39;;;;;;;16.77;13.03;;;1.40;99.90;;;;;;5016381;28;20905;-45
2023/11/29 07:04:06;;;;;;;16.23;11.20;;;1.40;99.90;;;;;;5062702;28;20246;-46
2023/11/29 07:06:33;;;;;;;15.77;12.60;;;1.40;99.90;;;;;;5049411;28;20191;-48
2023/11/29 07:09:00;;;;;;;17.63;12.80;;;1.30;99.90;;;;;;5053530;28;20234;-48
2023/11/29 07:11:26;;;;;;;19.20;12.20;;;1.30;99.90;;;;;;5059493;28;20214;-44
2023/11/29 07:13:55;;;;;;;17.73;12.57;;;1.40;99.90;;;;;;5059316;28;20218;-45
2023/11/29 07:16:22;;;;;;;14.33;11.97;;;1.40;99.90;;;;;;5029008;28;20288;-47
2023/11/29 07:18:51;;;;;;;16.33;11.30;;;1.40;99.90;;;;;;5061242;28;20179;-48
2023/11/29 07:21:17;;;;;;;15.53;11.93;;;1.40;99.90;;;;;;5059901;28;20190;-43
2023/11/29 07:23:44;;;;;;;16.53;12.20;;;1.40;99.90;;;;;;5044025;28;20210;-43
2023/11/29 07:26:12;;;;;;;19.53;13.53;;;1.40;99.90;;;;;;5048304;28;20205;-46
2023/11/29 07:28:38;;;;;;;18.77;12.23;;;1.40;99.90;;;;;;5054829;28;20210;-47
2023/11/29 07:31:09;;;;;;;17.73;13.33;;;1.40;99.90;;;;;;5014152;28;20493;-53
2023/11/29 07:33:36;;;;;;;13.90;11.23;;;1.40;99.90;;;;;;5044424;28;20752;-48
2023/11/29 07:36:11;;;;;;;16.53;12.50;;;1.40;99.90;;;;;;5057003;28;20206;-52
2023/11/29 07:38:38;;;;;;;20.40;13.50;;;1.40;99.90;;;;;;5032748;28;20728;-45
2023/11/29 07:41:05;;;;;;;17.77;12.70;;;1.40;99.90;;;;;;5054413;28;20272;-48
2023/11/29 07:43:32;;;;;;;17.60;12.70;;;1.40;99.90;;;;;;5059096;28;20198;-43
2023/11/29 07:45:59;;;;;;;17.80;13.97;;;1.40;99.90;;;;;;5045665;28;20276;-48
2023/11/29 07:48:26;;;;;;;17.60;12.57;;;1.40;99.90;;;;;;5030430;28;20230;-46
2023/11/29 07:50:54;;;;;;;19.60;13.90;;;1.40;99.90;;;;;;5055680;28;20210;-47
2023/11/29 07:53:23;;;;;;;19.20;13.43;;;1.40;99.90;;;;;;5050156;28;20602;-45
2023/11/29 07:55:49;;;;;;;18.83;13.47;;;1.40;99.90;;;;;;5050857;28;20265;-46
2023/11/29 07:58:16;;;;;;;18.07;12.70;;;1.40;99.90;;;;;;5060545;28;20213;-46
2023/11/29 08:00:43;;;;;;;21.17;13.33;;;1.40;99.90;;;;;;5050552;28;20182;-48
2023/11/29 08:03:10;;;;;;;18.53;13.50;;;1.30;99.90;;;;;;5027873;28;20240;-48
2023/11/29 08:05:38;;;;;;;16.73;13.03;;;1.40;99.90;;;;;;5057232;28;20219;-48
2023/11/29 08:08:06;;;;;;;18.93;13.67;;;1.40;99.90;;;;;;5053171;28;20230;-52
2023/11/29 08:10:34;;;;;;;20.37;14.00;;;1.40;99.90;;;;;;5049860;28;20214;-46
2023/11/29 08:13:01;;;;;;;17.83;13.53;;;1.40;99.90;;;;;;5061022;28;20202;-47
2023/11/29 08:15:28;;;;;;;18.53;13.53;;;1.40;99.90;;;;;;5053898;28;20260;-45
2023/11/29 08:17:55;;;;;;;17.20;13.33;;;1.40;99.90;;;;;;5029726;28;20210;-46
2023/11/29 08:20:22;;;;;;;21.47;14.33;;;1.40;99.90;;;;;;5059929;28;20195;-47
2023/11/29 08:22:49;;;;;;;21.60;13.17;;;1.40;99.90;;;;;;5057241;28;20244;-48
2023/11/29 08:25:16;;;;;;;18.53;13.03;;;1.40;99.90;;;;;;5044795;28;20310;-47
2023/11/29 08:27:44;;;;;;;18.13;13.33;;;1.40;99.90;;;;;;5056740;28;20894;-47
2023/11/29 08:30:12;;;;;;;17.07;12.60;;;1.40;99.90;;;;;;5060135;28;20265;-47
2023/11/29 08:32:40;;;;;;;18.63;13.33;;;1.40;99.90;;;;;;5027754;28;20203;-47
2023/11/29 08:35:09;;;;;;;18.30;13.47;;;1.30;99.90;;;;;;5055671;28;20222;-47
2023/11/29 08:37:35;;;;;;;18.27;13.33;;;1.30;99.90;;;;;;5057550;28;20202;-51
2023/11/29 08:40:03;;;;;;;17.57;12.70;;;1.30;99.90;;;;;;5050318;28;20248;-47
2023/11/29 08:42:30;;;;;;;19.10;13.77;;;1.30;99.90;;;;;;5050764;28;20282;-50
2023/11/29 08:44:59;;;;;;;18.23;13.50;;;1.40;99.90;;;;;;5057561;28;20218;-48
2023/11/29 08:47:26;;;;;;;19.03;13.27;;;1.40;99.90;;;;;;5053140;28;20210;-50
2023/11/29 08:49:52;;;;;;;20.07;13.80;;;1.40;99.90;;;;;;5024422;28;20290;-46
2023/11/29 08:52:22;;;;;;;19.30;13.43;;;1.30;99.90;;;;;;5055832;28;20313;-48
2023/11/29 08:54:50;;;;;;;21.30;14.43;;;1.30;99.90;;;;;;5049243;28;20214;-44
2023/11/29 08:57:17;;;;;;;22.37;14.07;;;1.40;99.90;;;;;;5052062;28;20210;-46
2023/11/29 08:59:44;;;;;;;18.97;13.27;;;1.40;99.90;;;;;;5053129;28;20179;-47
2023/11/29 09:02:12;;;;;;;20.10;14.53;;;1.40;99.90;;;;;;5051301;28;20214;-45
2023/11/29 09:04:40;;;;;;;20.93;14.00;;;1.40;99.90;;;;;;5023424;28;20214;-52
2023/11/29 09:07:07;;;;;;;18.03;13.73;;;1.40;99.90;;;;;;5044137;28;20206;-47
2023/11/29 09:09:34;;;;;;;20.70;14.07;;;1.40;99.90;;;;;;5055746;28;20291;-47
2023/11/29 09:12:03;;;;;;;22.10;14.67;;;1.40;99.90;;;;;;5042192;28;20260;-49
2023/11/29 09:14:30;;;;;;;20.10;14.00;;;1.40;99.90;;;;;;5053905;28;20852;-45
2023/11/29 09:16:57;;;;;;;17.43;13.47;;;1.50;99.90;;;;;;5055692;28;20202;-50
2023/11/29 09:19:25;;;;;;;21.47;13.53;;;1.50;99.90;;;;;;5055331;28;20555;-48
2023/11/29 09:21:53;;;;;;;19.13;14.50;;;1.50;99.90;;;;;;5034067;28;20283;-45
2023/11/29 09:24:20;;;;;;;18.90;13.27;;;1.50;99.90;;;;;;5060347;28;20588;-53
2023/11/29 09:26:46;;;;;;;18.83;13.97;;;1.50;99.90;;;;;;5053722;28;20191;-47
2023/11/29 09:29:13;;;;;;;19.60;14.03;;;1.40;99.90;;;;;;5052520;28;20207;-52
2023/11/29 09:31:40;;;;;;;19.70;13.53;;;1.40;99.90;;;;;;5058727;28;20187;-47
2023/11/29 09:34:07;;;;;;;18.77;14.30;;;1.50;99.90;;;;;;5053250;28;20252;-52
2023/11/29 09:36:36;;;;;;;18.93;14.57;;;1.50;99.90;;;;;;5021276;28;20241;-49
2023/11/29 09:39:11;;;;;;;17.73;13.47;;;1.50;99.90;;;;;;5057072;28;20193;-49
2023/11/29 09:41:38;;;;;;;17.07;13.43;;;1.50;99.90;;;;;;5043361;28;20288;-48
2023/11/29 09:44:05;;;;;;;22.87;14.13;;;1.50;99.90;;;;;;5052879;28;20223;-48
2023/11/29 09:46:32;;;;;;;17.70;13.93;;;1.50;99.90;;;;;;5059075;28;20207;-49
2023/11/29 09:49:00;;;;;;;23.63;14.30;;;1.60;99.90;;;;;;5058409;28;20222;-50
2023/11/29 09:51:28;;;;;;;20.93;14.00;;;1.60;99.90;;;;;;5059649;28;20226;-47
2023/11/29 09:53:56;;;;;;;23.30;14.73;;;1.60;99.90;;;;;;5034492;28;20632;-46
2023/11/29 09:56:24;;;;;;;20.53;14.20;;;1.50;99.90;;;;;;5050295;28;20199;-50
2023/11/29 09:58:51;;;;;;;20.03;14.40;;;1.60;99.90;;;;;;5057321;28;20214;-47
2023/11/29 10:01:21;;;;;;;19.83;14.87;;;1.60;99.90;;;;;;5050333;28;20206;-52
2023/11/29 10:04:02;;;;;;;18.67;14.37;;;1.60;99.90;;;;;;5061095;28;20274;-46
2023/11/29 10:06:31;;;;;;;20.83;14.30;;;1.60;99.90;;;;;;5051873;28;20199;-48
2023/11/29 10:09:04;;;;;;;20.77;15.53;;;1.60;99.90;;;;;;5028782;28;20653;-49
2023/11/29 10:11:31;;;;;;;19.80;14.60;;;1.60;99.90;;;;;;5059984;28;20211;-46
2023/11/29 10:13:59;;;;;;;19.23;13.90;;;1.60;99.90;;;;;;5057148;28;20275;-47
2023/11/29 10:16:28;;;;;;;20.87;13.47;;;1.60;99.90;;;;;;5054308;28;20896;-48
2023/11/29 10:18:55;;;;;;;21.00;14.60;;;1.60;99.90;;;;;;5061226;28;20665;-50
2023/11/29 10:21:23;;;;;;;20.77;14.57;;;1.60;99.90;;;;;;5054567;28;20199;-48
2023/11/29 10:23:50;;;;;;;23.63;15.67;;;1.70;99.90;;;;;;5037544;28;20205;-48
2023/11/29 10:26:18;;;;;;;21.73;14.40;;;1.70;99.90;;;;;;5053152;28;20259;-49
2023/11/29 10:28:45;;;;;;;23.57;15.40;;;1.70;99.90;;;;;;5053072;28;20211;-48
2023/11/29 10:31:13;;;;;;;23.37;15.97;;;1.70;99.90;;;;;;5053656;28;20233;-48
2023/11/29 10:33:43;;;;;;;20.73;14.87;;;1.70;99.90;;;;;;5055302;28;20297;-50
2023/11/29 10:36:11;;;;;;;21.57;13.90;;;1.70;99.90;;;;;;5054012;28;20202;-48
2023/11/29 10:38:41;;;;;;;22.47;15.43;;;1.70;99.90;;;;;;5036146;28;20214;-49
2023/11/29 10:41:10;;;;;;;25.23;16.27;;;1.70;99.90;;;;;;5060913;28;20187;-46
2023/11/29 10:43:42;;;;;;;22.70;15.77;;;1.70;99.90;;;;;;5049318;28;20206;-48
2023/11/29 10:46:13;;;;;;;21.33;15.80;;;1.60;99.90;;;;;;5055714;28;20236;-47
2023/11/29 10:48:45;;;;;;;19.80;14.53;;;1.70;99.90;;;;;;5051273;28;20205;-48
2023/11/29 10:51:13;;;;;;;22.67;14.33;;;1.70;99.90;;;;;;5055987;28;20233;-47
2023/11/29 10:53:41;;;;;;;22.17;15.30;;;1.60;99.90;;;;;;5035050;28;20302;-48
2023/11/29 10:56:09;;;;;;;17.43;14.23;;;1.70;99.90;;;;;;5060196;28;20276;-49
2023/11/29 10:58:44;;;;;;;20.73;14.70;;;1.70;99.90;;;;;;5058152;28;20195;-47
2023/11/29 11:01:11;;;;;;;19.00;14.23;;;1.70;99.90;;;;;;5053233;28;20258;-46
2023/11/29 11:03:40;;;;;;;21.63;15.37;;;1.70;99.90;;;;;;5049038;28;20878;-48
2023/11/29 11:06:39;;;;;;;19.67;14.33;;;1.70;99.90;;;;;;5059820;28;20285;-47
2023/11/29 11:09:35;;;;;;;22.47;13.93;;;1.70;99.90;;;;;;5016222;28;20215;-47
2023/11/29 11:12:04;;;;;;;20.60;14.70;;;1.70;99.90;;;;;;5057317;28;20210;-47
2023/11/29 11:14:43;;;;;;;21.00;14.77;;;1.60;99.90;;;;;;5059875;28;20218;-46
2023/11/29 11:17:11;;;;;;;22.20;14.73;;;1.60;99.90;;;;;;5043569;28;20207;-47
2023/11/29 11:19:39;;;;;;;19.80;14.30;;;1.60;99.90;;;;;;5049163;28;20187;-46
2023/11/29 11:22:09;;;;;;;20.57;15.17;;;1.60;99.90;;;;;;5060813;28;20624;-52
2023/11/29 11:24:59;;;;;;;20.50;13.77;;;1.60;99.90;;;;;;5027460;28;20229;-46
2023/11/29 11:27:30;;;;;;;17.27;13.00;;;1.60;99.90;;;;;;5056161;28;20195;-48
2023/11/29 11:29:58;;;;;;;17.80;13.33;;;1.60;99.90;;;;;;5056864;28;20199;-46
2023/11/29 11:32:47;;;;;;;17.30;13.03;;;1.60;99.90;;;;;;5042190;28;20454;-48
2023/11/29 11:35:41;;;;;;;20.70;12.83;;;1.60;99.90;;;;;;5045647;28;20219;-48
2023/11/29 11:38:09;;;;;;;14.97;11.40;;;1.60;99.90;;;;;;5018356;28;20291;-46
2023/11/29 11:40:39;;;;;;;18.27;12.77;;;1.60;99.90;;;;;;5026601;28;20288;-45
2023/11/29 11:43:06;;;;;;;16.87;12.60;;;1.50;99.90;;;;;;5053436;28;20357;-51
2023/11/29 11:45:36;;;;;;;13.73;10.30;;;1.50;99.90;;;;;;5048347;28;20660;-48
2023/11/29 11:48:04;;;;;;;14.93;10.77;;;1.50;99.90;;;;;;5061305;28;20222;-51
2023/11/29 11:50:32;;;;;;;15.27;11.90;;;1.50;99.90;;;;;;5040527;28;20676;-48
2023/11/29 11:52:59;;;;;;;15.57;11.30;;;1.50;99.90;;;;;;5062061;28;20447;-48
2023/11/29 11:55:27;;;;;;;15.67;10.03;;;1.40;99.90;;;;;;5050237;28;20289;-45
2023/11/29 11:57:55;;;;;;;13.20;8.60;;;1.40;99.90;;;;;;5028372;28;20589;-47
2023/11/29 12:00:23;;;;;;;9.73;7.80;;;1.30;99.90;;;;;;5047178;28;20299;-51
2023/11/29 12:02:51;;;;;;;9.87;7.93;;;1.30;99.90;;;;;;5056799;28;20191;-47
2023/11/29 12:05:19;;;;;;;9.20;7.90;;;1.20;99.90;;;;;;5046754;28;20218;-51
2023/11/29 12:07:48;;;;;;;12.40;7.87;;;1.20;99.90;;;;;;5050145;28;20202;-46
2023/11/29 12:10:16;;;;;;;10.60;7.93;;;1.10;99.90;;;;;;5051975;28;20221;-52
2023/11/29 12:12:44;;;;;;;11.20;8.30;;;1.10;99.90;;;;;;5026242;28;20304;-47
2023/11/29 12:15:15;;;;;;;10.63;8.37;;;1.10;99.90;;;;;;5046729;28;20222;-47
2023/11/29 12:17:42;;;;;;;10.97;8.00;;;1.10;99.90;;;;;;5054394;28;20641;-46
2023/11/29 12:20:11;;;;;;;11.60;7.90;;;1.10;99.90;;;;;;5043192;28;20284;-46
2023/11/29 12:22:44;;;;;;;10.97;8.70;;;1.10;99.90;;;;;;5049998;28;20245;-46
2023/11/29 12:25:13;;;;;;;10.57;8.03;;;1.10;99.90;;;;;;5049410;28;20593;-48
2023/11/29 12:27:40;;;;;;;11.67;8.67;;;1.20;99.90;;;;;;5055642;28;20201;-47
2023/11/29 12:30:10;;;;;;;11.03;7.90;;;1.10;99.90;;;;;;5027848;28;20286;-48
2023/11/29 12:32:39;;;;;;;9.90;7.77;;;1.10;99.90;;;;;;5049110;28;20198;-47
2023/11/29 12:35:07;;;;;;;11.53;7.60;;;1.10;99.90;;;;;;5048350;28;20272;-45
2023/11/29 12:37:37;;;;;;;11.70;7.80;;;1.10;99.90;;;;;;5046066;28;20275;-47
2023/11/29 12:40:05;;;;;;;11.07;7.20;;;1.10;99.90;;;;;;5055278;28;20218;-58
2023/11/29 12:42:33;;;;;;;10.37;7.40;;;1.10;99.90;;;;;;5056756;28;20201;-46